Terminal Aerodrome Forecast
Issued by NWS Buffalo, NY

Home | Current Version | Previous Version | Text Only | Print | Product List | Glossary On
Versions: 1 2 3 4 5 6 7 8 9 10 11 12 13 14 15 16 17 18 19 20 21 22 23 24 25 26 27 28 29 30 31 32 33 34 35 36
417
FTUS41 KBUF 141128
TAFROC
TAF
KROC 141128Z 1412/1512 27004KT 6SM -SN SCT015
     FM141500 27005KT 6SM -SN BKN035
     FM141800 28005KT P6SM BKN060
     FM142000 26006KT P6SM SCT080
     FM150800 15008KT P6SM SCT250=

USA.gov is the U.S. government's official web portal to all federal, state and local government web resources and services.